createdAt,value
2023-03-07T00:00:46.325Z,31.30
2023-03-07T00:03:17.023Z,32.70
2023-03-07T00:05:44.432Z,27.23
2023-03-07T00:08:11.745Z,30.07
2023-03-07T00:10:38.565Z,25.03
2023-03-07T00:13:05.249Z,30.43
2023-03-07T00:15:35.324Z,23.13
2023-03-07T00:18:10.077Z,30.90
2023-03-07T00:20:36.950Z,24.17
2023-03-07T00:23:05.167Z,29.30
2023-03-07T00:25:37.177Z,27.33
2023-03-07T00:28:07.497Z,26.93
2023-03-07T00:30:34.132Z,25.47
2023-03-07T00:33:00.859Z,26.37
2023-03-07T00:35:27.639Z,28.30
2023-03-07T00:37:54.415Z,28.53
2023-03-07T00:40:21.306Z,28.03
2023-03-07T00:42:48.176Z,25.80
2023-03-07T00:45:15.018Z,24.47
2023-03-07T00:47:41.673Z,25.77
2023-03-07T00:50:08.758Z,25.43
2023-03-07T00:52:35.487Z,26.37
2023-03-07T00:55:02.284Z,25.70
2023-03-07T00:57:31.071Z,25.90
2023-03-07T00:59:57.886Z,22.57
2023-03-07T01:02:24.730Z,23.67
2023-03-07T01:04:51.472Z,23.17
2023-03-07T01:07:18.125Z,24.40
2023-03-07T01:09:47.595Z,23.77
2023-03-07T01:12:14.479Z,23.30
2023-03-07T01:14:41.309Z,24.50
2023-03-07T01:17:08.220Z,21.87
2023-03-07T01:19:35.104Z,24.07
2023-03-07T01:22:02.940Z,20.97
2023-03-07T01:24:39.243Z,23.03
2023-03-07T01:27:17.011Z,20.83
2023-03-07T01:29:56.423Z,22.17
2023-03-07T01:32:33.329Z,18.77
2023-03-07T01:35:15.991Z,22.03
2023-03-07T01:37:52.114Z,21.07
2023-03-07T01:40:26.036Z,18.73
2023-03-07T01:43:18.699Z,13.33
2023-03-07T01:46:52.210Z,19.10
2023-03-07T01:49:45.369Z,18.67
2023-03-07T01:52:22.057Z,20.20
2023-03-07T01:54:52.708Z,14.57
2023-03-07T01:57:23.710Z,18.50
2023-03-07T01:59:54.735Z,18.33
2023-03-07T02:02:23.204Z,18.83
2023-03-07T02:05:00.164Z,17.70
2023-03-07T02:07:33.469Z,16.27
2023-03-07T02:10:01.005Z,17.93
2023-03-07T02:12:28.219Z,16.97
2023-03-07T02:14:55.409Z,14.60
2023-03-07T02:17:24.797Z,14.03
2023-03-07T02:24:12.881Z,13.97
2023-03-07T02:27:02.003Z,12.47
2023-03-07T02:38:44.893Z,11.63
2023-03-07T02:41:13.927Z,9.63
2023-03-07T02:43:40.752Z,12.00
2023-03-07T02:46:07.888Z,10.90
2023-03-07T02:48:34.969Z,11.83
2023-03-07T02:51:01.700Z,11.43
2023-03-07T02:53:28.482Z,11.27
2023-03-07T02:55:55.894Z,9.43
2023-03-07T02:58:23.180Z,11.20
2023-03-07T03:00:50.075Z,10.23
2023-03-07T03:03:17.180Z,10.03
2023-03-07T03:05:44.027Z,8.83
2023-03-07T03:08:10.774Z,8.23
2023-03-07T03:10:37.439Z,8.43
2023-03-07T03:13:15.799Z,5.67
2023-03-07T03:15:42.429Z,6.33
2023-03-07T03:18:09.065Z,8.40
2023-03-07T03:20:38.879Z,6.00
2023-03-07T03:23:06.125Z,7.37
2023-03-07T03:25:33.176Z,7.43
2023-03-07T03:27:59.945Z,6.07
2023-03-07T03:30:28.208Z,6.43
2023-03-07T03:32:56.365Z,5.97
2023-03-07T03:35:23.259Z,5.30
2023-03-07T03:37:50.276Z,5.30
2023-03-07T03:40:17.657Z,4.40
2023-03-07T03:42:45.591Z,4.77
2023-03-07T03:45:15.043Z,3.53
2023-03-07T03:47:42.139Z,4.27
2023-03-07T03:50:21.814Z,3.80
2023-03-07T03:52:53.813Z,3.93
2023-03-07T03:55:20.872Z,3.57
2023-03-07T03:58:12.013Z,3.43
2023-03-07T04:03:52.123Z,2.57
2023-03-07T04:06:39.311Z,2.70
2023-03-07T04:09:17.760Z,3.50
2023-03-07T04:11:44.366Z,2.60
2023-03-07T04:14:11.265Z,3.77
2023-03-07T04:16:38.128Z,2.80
2023-03-07T04:19:04.741Z,2.67
2023-03-07T04:21:31.628Z,2.20
2023-03-07T04:23:58.422Z,2.57
2023-03-07T04:26:25.264Z,2.07
2023-03-07T04:28:51.969Z,2.33
2023-03-07T04:31:24.260Z,2.47
2023-03-07T04:33:52.154Z,2.03
2023-03-07T04:36:19.738Z,1.97
2023-03-07T04:38:47.606Z,2.00
2023-03-07T04:41:17.210Z,1.80
2023-03-07T04:43:44.069Z,1.40
2023-03-07T04:46:13.317Z,1.67
2023-03-07T04:48:40.072Z,1.97
2023-03-07T04:51:06.683Z,1.50
2023-03-07T04:53:33.525Z,1.90
2023-03-07T04:56:06.265Z,1.50
2023-03-07T04:58:33.767Z,1.30
2023-03-07T05:01:01.984Z,1.90
2023-03-07T05:03:28.686Z,1.93
2023-03-07T05:05:55.597Z,1.93
2023-03-07T05:08:23.071Z,1.70
2023-03-07T05:10:49.940Z,1.73
2023-03-07T05:13:16.535Z,1.60
2023-03-07T05:15:43.623Z,1.50
2023-03-07T05:18:10.199Z,1.53
2023-03-07T05:20:36.847Z,2.13
2023-03-07T05:23:03.481Z,1.30
2023-03-07T05:25:30.070Z,1.10
2023-03-07T05:27:56.912Z,1.20
2023-03-07T05:30:23.514Z,1.03
2023-03-07T05:32:51.466Z,1.33
2023-03-07T05:35:19.037Z,1.93
2023-03-07T05:37:46.297Z,1.17
2023-03-07T05:40:14.038Z,1.37
2023-03-07T05:42:46.834Z,1.97
2023-03-07T05:45:13.537Z,0.73
2023-03-07T05:47:40.267Z,1.63
2023-03-07T05:50:07.819Z,1.10
2023-03-07T05:52:34.659Z,1.40
2023-03-07T05:55:01.428Z,1.43
2023-03-07T05:57:31.308Z,1.87
2023-03-07T05:59:57.950Z,1.20
2023-03-07T06:02:24.711Z,0.80
2023-03-07T06:04:51.330Z,0.80
2023-03-07T06:07:17.950Z,1.40
2023-03-07T06:09:44.666Z,0.80
2023-03-07T06:12:11.486Z,1.33
2023-03-07T06:14:38.272Z,0.80
2023-03-07T06:17:05.630Z,0.77
2023-03-07T06:19:32.585Z,0.90
2023-03-07T06:21:59.223Z,1.40
2023-03-07T06:24:25.761Z,0.93
2023-03-07T06:26:52.371Z,0.57
2023-03-07T06:29:18.938Z,1.30
2023-03-07T06:31:45.609Z,0.90
2023-03-07T06:34:12.781Z,1.00
2023-03-07T06:36:40.326Z,0.90
2023-03-07T06:39:07.609Z,1.43
2023-03-07T06:41:34.981Z,1.20
2023-03-07T06:44:01.719Z,1.07
2023-03-07T06:46:28.763Z,0.97
2023-03-07T06:48:55.849Z,1.20
2023-03-07T06:51:22.884Z,1.47
2023-03-07T06:53:49.704Z,4.67
2023-03-07T06:56:17.062Z,1.70
2023-03-07T06:58:43.808Z,1.93
2023-03-07T07:01:19.231Z,2.50
2023-03-07T07:03:46.132Z,3.90
2023-03-07T07:06:13.181Z,2.40
2023-03-07T07:08:40.107Z,2.70
2023-03-07T07:11:07.041Z,2.63
2023-03-07T07:13:48.013Z,2.10
2023-03-07T07:16:14.770Z,1.93
2023-03-07T07:18:41.534Z,1.10
2023-03-07T07:21:08.843Z,1.60
2023-03-07T07:23:35.713Z,1.40
2023-03-07T07:26:03.007Z,1.37
2023-03-07T07:28:29.890Z,1.17
2023-03-07T07:30:56.616Z,1.50
2023-03-07T07:33:23.350Z,0.93
2023-03-07T07:35:50.634Z,0.90
2023-03-07T07:38:17.310Z,1.13
2023-03-07T07:40:45.120Z,1.20
2023-03-07T07:43:16.193Z,1.43
2023-03-07T07:45:43.020Z,1.70
2023-03-07T07:48:09.777Z,1.47
2023-03-07T07:50:37.362Z,1.27
2023-03-07T07:53:04.129Z,1.00
2023-03-07T07:55:30.837Z,0.90
2023-03-07T07:57:57.554Z,0.90
2023-03-07T08:00:27.410Z,1.07
2023-03-07T08:03:13.005Z,0.90
2023-03-07T08:05:45.214Z,1.17
2023-03-07T08:08:27.530Z,1.10
2023-03-07T08:10:54.258Z,0.80
2023-03-07T08:13:21.176Z,1.00
2023-03-07T08:15:48.058Z,1.07
2023-03-07T08:19:00.660Z,0.80
2023-03-07T08:21:28.127Z,0.93
2023-03-07T08:23:56.143Z,0.90
2023-03-07T08:26:23.497Z,0.80
2023-03-07T08:28:55.938Z,1.30
2023-03-07T08:31:24.623Z,0.90
2023-03-07T08:33:53.885Z,1.10
2023-03-07T08:36:20.969Z,1.07
2023-03-07T08:38:52.096Z,1.23
2023-03-07T08:41:20.625Z,0.50
2023-03-07T08:43:47.870Z,1.17
2023-03-07T08:46:14.978Z,1.20
2023-03-07T08:48:41.828Z,0.87
2023-03-07T08:51:11.381Z,1.20
2023-03-07T08:53:38.858Z,1.33
2023-03-07T08:56:09.920Z,1.30
2023-03-07T08:58:37.501Z,0.70
2023-03-07T09:01:05.664Z,1.63
2023-03-07T09:03:32.840Z,1.27
2023-03-07T09:06:00.169Z,0.90
2023-03-07T09:08:27.206Z,1.03
2023-03-07T09:10:54.607Z,0.80
2023-03-07T09:13:21.400Z,0.90
2023-03-07T09:15:54.126Z,0.70
2023-03-07T09:18:22.900Z,2.13
2023-03-07T09:20:49.551Z,2.73
2023-03-07T09:23:19.220Z,1.10
2023-03-07T09:25:45.892Z,1.50
2023-03-07T09:28:12.563Z,2.13
2023-03-07T09:30:39.354Z,2.10
2023-03-07T09:33:06.036Z,3.10
2023-03-07T09:35:32.765Z,1.10
2023-03-07T09:37:59.924Z,3.23
2023-03-07T09:40:27.866Z,1.80
2023-03-07T09:43:02.394Z,1.17
2023-03-07T09:45:39.289Z,0.93
2023-03-07T09:48:51.062Z,0.85
2023-03-07T09:51:38.185Z,0.70
2023-03-07T09:54:31.756Z,0.57
2023-03-07T09:57:00.105Z,0.53
2023-03-07T09:59:34.904Z,0.90
2023-03-07T10:02:14.663Z,1.13
2023-03-07T10:04:52.537Z,0.60
2023-03-07T10:07:23.446Z,0.90
2023-03-07T10:09:57.323Z,0.80
2023-03-07T10:12:54.356Z,0.90
2023-03-07T10:15:45.731Z,1.20
2023-03-07T10:18:26.181Z,0.90
2023-03-07T10:21:12.755Z,0.90
2023-03-07T10:24:11.396Z,0.93
2023-03-07T10:26:58.551Z,0.70
2023-03-07T10:29:30.796Z,0.90
2023-03-07T10:32:18.644Z,0.70
2023-03-07T10:34:46.786Z,0.77
2023-03-07T10:37:16.071Z,0.80
2023-03-07T10:39:52.120Z,1.20
2023-03-07T10:42:24.733Z,0.93
2023-03-07T10:44:52.269Z,1.47
2023-03-07T10:47:26.883Z,1.50
2023-03-07T10:50:00.523Z,1.20
2023-03-07T10:52:46.627Z,1.03
2023-03-07T10:55:44.949Z,0.88
2023-03-07T10:58:12.438Z,1.30
2023-03-07T11:00:39.194Z,0.63
2023-03-07T11:03:25.375Z,1.08
2023-03-07T11:05:52.048Z,1.10
2023-03-07T11:08:33.390Z,1.10
2023-03-07T11:11:02.473Z,0.87
2023-03-07T11:13:29.615Z,0.80
2023-03-07T11:16:21.313Z,0.87
2023-03-07T11:18:48.415Z,0.80
2023-03-07T11:21:33.516Z,1.03
2023-03-07T11:24:20.310Z,1.67
2023-03-07T11:26:46.932Z,1.73
2023-03-07T11:29:14.695Z,1.45
2023-03-07T11:31:51.521Z,1.35
2023-03-07T11:34:39.601Z,1.17
2023-03-07T11:37:26.087Z,1.08
2023-03-07T11:40:08.475Z,1.67
2023-03-07T11:42:43.820Z,2.50
2023-03-07T11:45:34.447Z,4.93
2023-03-07T11:48:16.053Z,2.35
2023-03-07T11:50:49.421Z,1.55
2023-03-07T11:53:38.086Z,5.90
2023-03-07T11:56:34.084Z,1.95
2023-03-07T11:59:31.516Z,0.90
2023-03-07T12:02:02.183Z,0.90
2023-03-07T12:04:59.276Z,1.20
2023-03-07T12:07:51.112Z,1.05
2023-03-07T12:10:36.561Z,0.73
2023-03-07T12:13:30.619Z,1.98
2023-03-07T12:16:20.582Z,1.23
2023-03-07T12:18:56.752Z,1.20
2023-03-07T12:21:42.855Z,0.90
2023-03-07T12:24:21.274Z,1.05
2023-03-07T12:26:59.640Z,1.30
2023-03-07T12:29:43.077Z,0.80
2023-03-07T12:32:18.225Z,0.80
2023-03-07T12:34:55.748Z,0.80
2023-03-07T12:37:28.001Z,1.00
2023-03-07T12:40:35.406Z,0.77
2023-03-07T12:43:26.926Z,0.60
2023-03-07T12:46:09.043Z,0.80
2023-03-07T12:48:41.220Z,0.60
2023-03-07T12:51:19.439Z,0.68
2023-03-07T12:53:58.992Z,0.70
2023-03-07T12:56:54.013Z,0.47
2023-03-07T12:59:21.877Z,0.82
2023-03-07T13:01:53.869Z,0.60
2023-03-07T13:04:38.873Z,0.47
2023-03-07T13:07:18.488Z,0.88
2023-03-07T13:09:47.945Z,0.90
2023-03-07T13:12:20.144Z,1.42
2023-03-07T13:15:01.907Z,1.27
2023-03-07T13:17:31.670Z,1.67
2023-03-07T13:20:02.044Z,1.25
2023-03-07T13:25:28.049Z,1.13
2023-03-07T13:28:40.974Z,1.13
2023-03-07T13:31:42.371Z,0.77
2023-03-07T13:39:37.248Z,1.00
2023-03-07T13:42:06.630Z,0.80
2023-03-07T13:44:40.934Z,0.95
2023-03-07T13:47:43.100Z,0.68
2023-03-07T13:50:59.078Z,0.63
2023-03-07T13:53:31.677Z,0.73
2023-03-07T13:56:07.392Z,0.80
2023-03-07T13:58:39.954Z,0.73
2023-03-07T14:01:17.201Z,0.90
2023-03-07T14:03:59.153Z,0.50
2023-03-07T14:06:40.901Z,0.40
2023-03-07T14:09:14.704Z,0.43
2023-03-07T14:13:06.094Z,0.70
2023-03-07T14:15:50.484Z,1.05
2023-03-07T14:18:31.235Z,0.68
2023-03-07T14:21:07.041Z,0.57
2023-03-07T14:23:54.214Z,0.60
2023-03-07T14:26:37.015Z,0.47
2023-03-07T14:29:22.201Z,1.02
2023-03-07T14:31:53.411Z,0.60
2023-03-07T14:34:35.919Z,0.60
2023-03-07T14:37:12.186Z,0.57
2023-03-07T14:40:03.435Z,1.33
2023-03-07T14:42:51.651Z,1.20
2023-03-07T14:45:41.923Z,0.52
2023-03-07T14:48:47.404Z,0.40
2023-03-07T14:51:21.848Z,0.70
2023-03-07T14:53:49.746Z,0.85
2023-03-07T14:56:23.632Z,0.50
2023-03-07T14:58:58.097Z,0.60
2023-03-07T15:01:32.015Z,0.77
2023-03-07T15:03:58.999Z,0.85
2023-03-07T15:06:28.950Z,0.43
2023-03-07T15:08:57.602Z,0.32
2023-03-07T15:11:51.948Z,0.30
2023-03-07T15:14:30.324Z,0.40
2023-03-07T15:17:04.308Z,0.50
2023-03-07T15:19:43.464Z,0.40
2023-03-07T15:24:47.607Z,0.50
2023-03-07T15:27:18.675Z,0.32
2023-03-07T15:29:46.854Z,0.88
2023-03-07T15:32:37.061Z,4.07
2023-03-07T15:35:10.988Z,2.05
2023-03-07T15:37:58.717Z,2.00
2023-03-07T15:40:35.201Z,1.73
2023-03-07T15:43:05.150Z,11.55
2023-03-07T15:45:40.442Z,5.10
2023-03-07T15:48:44.910Z,0.80
2023-03-07T15:51:20.374Z,1.23
2023-03-07T15:54:28.182Z,0.77
2023-03-07T15:56:59.400Z,1.27
2023-03-07T15:59:36.377Z,1.40
2023-03-07T16:02:43.118Z,0.50
2023-03-07T16:05:24.078Z,0.70
2023-03-07T16:07:53.896Z,1.07
2023-03-07T16:10:24.385Z,0.50
2023-03-07T16:12:51.149Z,0.60
2023-03-07T16:15:23.035Z,0.67
2023-03-07T16:17:54.118Z,0.43
2023-03-07T16:20:26.636Z,0.50
2023-03-07T16:22:54.308Z,0.60
2023-03-07T16:25:22.888Z,0.67
2023-03-07T16:27:56.646Z,0.50
2023-03-07T16:30:25.638Z,0.60
2023-03-07T16:32:52.362Z,1.37
2023-03-07T16:35:24.480Z,0.50
2023-03-07T16:37:52.211Z,2.00
2023-03-07T16:40:20.313Z,1.80
2023-03-07T16:42:50.380Z,1.00
2023-03-07T16:45:31.817Z,0.63
2023-03-07T16:48:02.130Z,0.70
2023-03-07T16:50:31.814Z,0.73
2023-03-07T16:52:58.574Z,0.77
2023-03-07T16:55:26.132Z,0.60
2023-03-07T16:58:00.432Z,0.60
2023-03-07T17:00:28.201Z,0.47
2023-03-07T17:02:58.309Z,0.87
2023-03-07T17:05:27.222Z,1.30
2023-03-07T17:07:59.100Z,0.80
2023-03-07T17:10:27.185Z,0.60
2023-03-07T17:12:56.555Z,0.70
2023-03-07T17:15:30.312Z,0.83
2023-03-07T17:17:58.906Z,1.30
2023-03-07T17:20:26.169Z,0.77
2023-03-07T17:22:53.881Z,1.10
2023-03-07T17:25:21.300Z,0.70
2023-03-07T17:28:06.439Z,1.00
2023-03-07T17:30:33.473Z,0.90
2023-03-07T17:33:01.140Z,0.73
2023-03-07T17:35:28.652Z,1.20
2023-03-07T17:37:55.563Z,1.70
2023-03-07T17:40:22.637Z,5.30
2023-03-07T17:42:51.419Z,3.93
2023-03-07T17:45:18.420Z,5.23
2023-03-07T17:47:45.254Z,8.07
2023-03-07T17:50:12.248Z,6.10
2023-03-07T17:52:39.237Z,1.80
2023-03-07T17:55:09.592Z,1.50
2023-03-07T17:57:36.581Z,1.30
2023-03-07T18:00:13.870Z,1.00
2023-03-07T18:02:45.992Z,0.80
2023-03-07T18:05:13.375Z,1.20
2023-03-07T18:07:43.368Z,0.73
2023-03-07T18:10:11.802Z,1.67
2023-03-07T18:12:39.472Z,4.80
2023-03-07T18:15:17.809Z,4.90
2023-03-07T18:17:48.743Z,2.67
2023-03-07T18:20:18.220Z,4.17
2023-03-07T18:22:44.998Z,3.43
2023-03-07T18:25:13.946Z,3.00
2023-03-07T18:27:40.946Z,2.87
2023-03-07T18:30:09.013Z,1.80
2023-03-07T18:32:35.966Z,1.73
2023-03-07T18:35:03.678Z,2.50
2023-03-07T18:37:32.254Z,2.80
2023-03-07T18:39:59.003Z,2.23
2023-03-07T18:42:25.763Z,1.50
2023-03-07T18:44:52.917Z,1.70
2023-03-07T18:47:19.588Z,1.63
2023-03-07T18:49:51.277Z,2.03
2023-03-07T18:52:18.817Z,1.70
2023-03-07T18:54:45.611Z,1.70
2023-03-07T18:57:12.444Z,1.93
2023-03-07T18:59:39.392Z,1.70
2023-03-07T19:02:06.232Z,1.50
2023-03-07T19:04:33.137Z,1.20
2023-03-07T19:07:00.693Z,1.10
2023-03-07T19:09:27.772Z,1.57
2023-03-07T19:11:54.608Z,1.20
2023-03-07T19:14:21.476Z,1.27
2023-03-07T19:16:48.496Z,1.23
2023-03-07T19:19:16.172Z,1.23
2023-03-07T19:21:42.996Z,2.13
2023-03-07T19:29:21.510Z,1.73
2023-03-07T19:31:48.545Z,2.30
2023-03-07T19:34:15.796Z,1.30
2023-03-07T19:36:42.730Z,1.40
2023-03-07T19:39:14.641Z,1.90
2023-03-07T19:41:42.630Z,1.80
2023-03-07T19:44:12.148Z,2.40
2023-03-07T19:46:38.906Z,2.13
2023-03-07T19:49:05.598Z,5.57
2023-03-07T19:51:32.508Z,2.00
2023-03-07T19:53:59.378Z,2.00
2023-03-07T19:56:31.795Z,2.13
2023-03-07T19:59:17.880Z,2.20
2023-03-07T20:01:56.795Z,1.70
2023-03-07T20:04:38.275Z,1.90
2023-03-07T20:07:05.381Z,2.30
2023-03-07T20:09:32.092Z,1.93
2023-03-07T20:11:58.963Z,1.20
2023-03-07T20:14:25.710Z,1.50
2023-03-07T20:16:52.510Z,1.97
2023-03-07T20:19:20.695Z,2.17
2023-03-07T20:21:50.026Z,1.80
2023-03-07T20:24:19.952Z,3.10
2023-03-07T20:26:47.986Z,1.90
2023-03-07T20:29:14.710Z,1.50
2023-03-07T20:31:41.451Z,2.00
2023-03-07T20:34:08.302Z,2.93
2023-03-07T20:36:37.738Z,2.80
2023-03-07T20:39:11.838Z,4.67
2023-03-07T20:41:38.651Z,19.90
2023-03-07T20:44:08.024Z,12.10
2023-03-07T20:46:35.780Z,4.70
2023-03-07T20:49:02.617Z,2.20
2023-03-07T20:51:32.311Z,3.93
2023-03-07T20:54:03.600Z,1.87
2023-03-07T20:56:32.727Z,1.83
2023-03-07T20:59:00.136Z,1.80
2023-03-07T21:01:29.404Z,2.30
2023-03-07T21:03:56.437Z,2.20
2023-03-07T21:06:23.304Z,1.83
2023-03-07T21:08:50.034Z,2.50
2023-03-07T21:11:19.765Z,2.53
2023-03-07T21:19:01.604Z,1.97
2023-03-07T21:21:29.543Z,2.30
2023-03-07T21:23:57.070Z,2.00
2023-03-07T21:26:26.570Z,2.93
2023-03-07T21:28:53.652Z,1.87
2023-03-07T21:31:22.721Z,1.87
2023-03-07T21:33:53.844Z,2.40
2023-03-07T21:36:24.170Z,2.07
2023-03-07T21:38:51.301Z,3.30
2023-03-07T21:41:19.343Z,2.20
2023-03-07T21:43:45.966Z,2.27
2023-03-07T21:46:14.125Z,2.40
2023-03-07T21:48:41.833Z,2.47
2023-03-07T21:51:08.796Z,2.30
2023-03-07T21:53:35.784Z,2.23
2023-03-07T21:56:11.423Z,2.40
2023-03-07T21:58:39.304Z,2.20
2023-03-07T22:01:21.404Z,2.13
2023-03-07T22:03:48.105Z,2.63
2023-03-07T22:06:16.518Z,1.63
2023-03-07T22:08:43.177Z,2.13
2023-03-07T22:11:11.929Z,1.87
2023-03-07T22:13:40.238Z,1.90
2023-03-07T22:16:11.395Z,1.87
2023-03-07T22:18:38.231Z,1.90
2023-03-07T22:21:17.205Z,1.80
2023-03-07T22:23:44.080Z,1.63
2023-03-07T22:26:11.861Z,1.90
2023-03-07T22:28:40.894Z,2.10
2023-03-07T22:31:10.276Z,1.70
2023-03-07T22:33:38.261Z,2.07
2023-03-07T22:36:07.217Z,1.97
2023-03-07T22:38:34.788Z,2.00
2023-03-07T22:41:03.770Z,2.13
2023-03-07T22:43:32.340Z,2.30
2023-03-07T22:45:59.190Z,2.10
2023-03-07T22:48:26.476Z,1.90
2023-03-07T22:50:53.363Z,2.23
2023-03-07T22:53:20.087Z,2.23
2023-03-07T22:55:46.823Z,2.67
2023-03-07T22:58:14.178Z,2.60
2023-03-07T23:00:42.528Z,2.80
2023-03-07T23:03:09.573Z,3.07
2023-03-07T23:05:37.253Z,2.47
2023-03-07T23:08:04.946Z,2.70
2023-03-07T23:10:35.094Z,2.43
2023-03-07T23:13:01.694Z,2.70
2023-03-07T23:15:28.697Z,3.10
2023-03-07T23:17:56.031Z,2.47
2023-03-07T23:20:25.659Z,2.80
2023-03-07T23:22:52.837Z,2.80
2023-03-07T23:25:20.593Z,2.80
2023-03-07T23:27:47.915Z,3.00
2023-03-07T23:30:14.981Z,2.80
2023-03-07T23:32:41.688Z,3.03
2023-03-07T23:35:09.244Z,3.20
2023-03-07T23:37:35.796Z,3.10
2023-03-07T23:40:02.672Z,2.07
2023-03-07T23:42:29.358Z,1.87
2023-03-07T23:44:56.208Z,2.20
2023-03-07T23:47:22.807Z,1.73
2023-03-07T23:49:49.326Z,2.07
2023-03-07T23:52:15.883Z,2.63
2023-03-07T23:54:45.194Z,2.90
2023-03-07T23:57:12.607Z,2.77
2023-03-07T23:59:39.445Z,3.07
